Terminal Aerodrome Forecast
Issued by NWS Austin/San Antonio, TX

Home | Current Version | Previous Version | Text Only | Print | Product List | Glossary On
Versions: 1 2 3 4 5 6 7 8 9 10 11 12 13 14 15 16 17 18 19 20 21 22 23 24 25 26 27
000
FTUS44 KEWX 231700
TAFAUS
TAF
KAUS 231729Z 2318/2424 17013KT P6SM SCT050 SCT250
     FM240600 17011KT P6SM BKN012
     FM241000 18009KT P6SM OVC006
     FM241300 18007KT 4SM BR OVC015
     FM241500 19010KT P6SM BKN025
     FM241700 19007KT P6SM SCT050=

USA.gov is the U.S. government's official web portal to all federal, state and local government web resources and services.